createdAt,value
2023-03-27T00:00:17.089Z,96.7
2023-03-27T00:01:16.715Z,96.8
2023-03-27T00:02:17.199Z,96.9
2023-03-27T00:03:16.987Z,96.9
2023-03-27T00:04:18.599Z,97.0
2023-03-27T00:05:17.360Z,97.0
2023-03-27T00:06:17.131Z,97.1
2023-03-27T00:07:16.680Z,97.0
2023-03-27T00:08:17.230Z,97.0
2023-03-27T00:09:16.811Z,97.0
2023-03-27T00:10:17.377Z,97.0
2023-03-27T00:11:16.964Z,96.9
2023-03-27T00:12:17.507Z,96.8
2023-03-27T00:13:17.039Z,96.8
2023-03-27T00:14:16.624Z,96.9
2023-03-27T00:15:17.344Z,96.8
2023-03-27T00:16:17.059Z,96.8
2023-03-27T00:17:16.692Z,96.8
2023-03-27T00:18:17.244Z,96.8
2023-03-27T00:19:16.812Z,96.9
2023-03-27T00:20:17.349Z,96.8
2023-03-27T00:21:16.904Z,96.8
2023-03-27T00:22:16.532Z,96.6
2023-03-27T00:23:17.088Z,96.6
2023-03-27T00:24:16.656Z,96.7
2023-03-27T00:25:17.268Z,96.7
2023-03-27T00:26:16.820Z,96.8
2023-03-27T00:27:17.379Z,96.6
2023-03-27T00:28:16.940Z,96.7
2023-03-27T00:29:17.532Z,96.7
2023-03-27T00:30:17.120Z,96.7
2023-03-27T00:31:16.762Z,96.8
2023-03-27T00:32:16.686Z,96.8
2023-03-27T00:33:17.233Z,96.9
2023-03-27T00:34:16.756Z,96.7
2023-03-27T00:35:17.482Z,96.7
2023-03-27T00:36:17.057Z,96.8
2023-03-27T00:37:16.613Z,96.8
2023-03-27T00:38:17.174Z,96.7
2023-03-27T00:39:16.730Z,96.6
2023-03-27T00:40:17.295Z,96.9
2023-03-27T00:41:16.901Z,96.8
2023-03-27T00:42:16.731Z,96.7
2023-03-27T00:43:17.271Z,96.6
2023-03-27T00:44:16.827Z,96.8
2023-03-27T00:45:17.400Z,96.9
2023-03-27T00:46:17.035Z,97.0
2023-03-27T00:47:16.572Z,97.0
2023-03-27T00:48:17.129Z,97.0
2023-03-27T00:49:16.695Z,97.2
2023-03-27T00:50:17.300Z,97.4
2023-03-27T00:51:16.845Z,97.4
2023-03-27T00:52:17.429Z,97.5
2023-03-27T00:53:16.972Z,97.5
2023-03-27T00:54:16.608Z,97.1
2023-03-27T00:55:17.148Z,97.2
2023-03-27T00:56:16.926Z,97.2
2023-03-27T00:57:17.626Z,97.1
2023-03-27T00:58:17.152Z,97.1
2023-03-27T00:59:16.694Z,97.0
2023-03-27T01:00:17.295Z,97.1
2023-03-27T01:01:16.913Z,97.0
2023-03-27T01:02:16.758Z,97.0
2023-03-27T01:03:17.516Z,97.0
2023-03-27T01:04:17.140Z,97.1
2023-03-27T01:05:18.292Z,97.1
2023-03-27T01:06:17.158Z,97.0
2023-03-27T01:07:16.802Z,97.1
2023-03-27T01:08:17.356Z,97.1
2023-03-27T01:09:21.694Z,97.0
2023-03-27T01:10:17.331Z,97.0
2023-03-27T01:11:16.873Z,97.0
2023-03-27T01:12:16.619Z,97.0
2023-03-27T01:13:17.202Z,97.0
2023-03-27T01:14:16.732Z,96.9
2023-03-27T01:15:17.296Z,97.0
2023-03-27T01:16:16.897Z,97.0
2023-03-27T01:17:17.475Z,97.1
2023-03-27T01:18:17.039Z,97.1
2023-03-27T01:19:16.601Z,97.2
2023-03-27T01:20:17.176Z,97.2
2023-03-27T01:21:16.747Z,97.2
2023-03-27T01:22:16.739Z,97.2
2023-03-27T01:23:35.286Z,97.2
2023-03-27T01:24:16.648Z,97.2
2023-03-27T01:25:17.168Z,97.2
2023-03-27T01:26:16.687Z,97.2
2023-03-27T01:27:17.258Z,97.3
2023-03-27T01:28:16.856Z,97.3
2023-03-27T01:29:17.430Z,97.2
2023-03-27T01:30:17.039Z,97.2
2023-03-27T01:31:16.706Z,97.1
2023-03-27T01:32:16.514Z,97.1
2023-03-27T01:33:17.068Z,97.0
2023-03-27T01:34:16.642Z,96.9
2023-03-27T01:35:17.267Z,96.8
2023-03-27T01:36:16.795Z,96.5
2023-03-27T01:37:17.327Z,96.6
2023-03-27T01:38:16.887Z,96.5
2023-03-27T01:39:17.496Z,96.5
2023-03-27T01:40:17.039Z,96.6
2023-03-27T01:41:16.600Z,96.5
2023-03-27T01:42:16.512Z,96.5
2023-03-27T01:43:17.106Z,96.5
2023-03-27T01:44:16.680Z,96.5
2023-03-27T01:45:17.298Z,96.6
2023-03-27T01:46:16.938Z,96.6
2023-03-27T01:47:17.579Z,96.7
2023-03-27T01:48:17.141Z,96.6
2023-03-27T01:49:16.704Z,96.7
2023-03-27T01:50:17.301Z,96.7
2023-03-27T01:51:16.876Z,96.6
2023-03-27T01:52:17.393Z,96.6
2023-03-27T01:53:16.943Z,96.5
2023-03-27T01:54:17.490Z,96.5
2023-03-27T01:55:17.055Z,96.5
2023-03-27T01:56:16.653Z,96.5
2023-03-27T01:57:17.306Z,96.4
2023-03-27T01:58:16.894Z,96.4
2023-03-27T01:59:17.460Z,96.3
2023-03-27T02:00:19.694Z,96.3
2023-03-27T02:01:17.531Z,96.3
2023-03-27T02:02:17.200Z,96.4
2023-03-27T02:03:16.763Z,96.4
2023-03-27T02:04:17.305Z,96.4
2023-03-27T02:05:17.070Z,96.4
2023-03-27T02:06:16.736Z,96.3
2023-03-27T02:07:17.319Z,96.2
2023-03-27T02:08:16.876Z,96.2
2023-03-27T02:09:17.425Z,96.3
2023-03-27T02:10:16.981Z,96.2
2023-03-27T02:11:16.565Z,96.2
2023-03-27T02:12:17.186Z,96.1
2023-03-27T02:13:16.717Z,96.0
2023-03-27T02:14:17.303Z,95.9
2023-03-27T02:15:25.244Z,95.8
2023-03-27T02:16:17.000Z,95.7
2023-03-27T02:17:16.590Z,95.9
2023-03-27T02:18:17.158Z,95.9
2023-03-27T02:19:16.708Z,96.1
2023-03-27T02:20:17.244Z,95.9
2023-03-27T02:21:16.804Z,95.9
2023-03-27T02:22:16.611Z,95.9
2023-03-27T02:23:17.396Z,95.8
2023-03-27T02:24:16.947Z,95.7
2023-03-27T02:25:17.493Z,95.5
2023-03-27T02:26:17.078Z,95.4
2023-03-27T02:27:16.637Z,95.5
2023-03-27T02:28:17.181Z,95.5
2023-03-27T02:29:16.766Z,95.3
2023-03-27T02:30:17.342Z,95.2
2023-03-27T02:31:31.950Z,95.2
2023-03-27T02:32:16.845Z,95.2
2023-03-27T02:33:17.442Z,95.2
2023-03-27T02:34:17.016Z,95.2
2023-03-27T02:35:16.585Z,95.3
2023-03-27T02:36:17.116Z,95.3
2023-03-27T02:37:16.682Z,95.2
2023-03-27T02:38:17.229Z,95.2
2023-03-27T02:39:16.817Z,95.2
2023-03-27T02:40:17.385Z,95.1
2023-03-27T02:41:16.953Z,95.1
2023-03-27T02:42:16.588Z,95.3
2023-03-27T02:43:17.161Z,95.3
2023-03-27T02:44:16.688Z,95.4
2023-03-27T02:45:17.247Z,95.3
2023-03-27T02:46:16.878Z,95.4
2023-03-27T02:47:17.458Z,95.4
2023-03-27T02:48:17.015Z,95.4
2023-03-27T02:49:16.574Z,95.4
2023-03-27T02:50:17.145Z,95.2
2023-03-27T02:51:16.782Z,95.3
2023-03-27T02:52:17.055Z,95.3
2023-03-27T02:53:16.596Z,95.3
2023-03-27T02:54:17.163Z,95.4
2023-03-27T02:55:16.706Z,95.4
2023-03-27T02:56:17.260Z,95.5
2023-03-27T02:57:16.943Z,95.3
2023-03-27T02:58:16.567Z,95.4
2023-03-27T02:59:17.119Z,95.3
2023-03-27T03:00:16.676Z,95.3
2023-03-27T03:01:17.295Z,95.4
2023-03-27T03:02:17.107Z,95.5
2023-03-27T03:03:16.904Z,95.5
2023-03-27T03:04:17.549Z,95.4
2023-03-27T03:05:17.122Z,95.4
2023-03-27T03:06:16.658Z,95.3
2023-03-27T03:07:17.212Z,95.3
2023-03-27T03:08:16.759Z,95.3
2023-03-27T03:09:17.320Z,95.3
2023-03-27T03:10:16.860Z,95.3
2023-03-27T03:11:17.423Z,95.3
2023-03-27T03:12:17.497Z,95.3
2023-03-27T03:13:17.063Z,95.4
2023-03-27T03:14:16.623Z,95.3
2023-03-27T03:15:17.168Z,95.4
2023-03-27T03:16:16.750Z,95.4
2023-03-27T03:17:17.340Z,95.5
2023-03-27T03:18:16.912Z,95.5
2023-03-27T03:19:17.553Z,95.4
2023-03-27T03:20:17.165Z,95.4
2023-03-27T03:21:16.711Z,95.5
2023-03-27T03:22:17.391Z,95.6
2023-03-27T03:23:16.920Z,95.6
2023-03-27T03:24:17.517Z,95.6
2023-03-27T03:25:17.069Z,95.7
2023-03-27T03:26:16.648Z,95.7
2023-03-27T03:27:17.170Z,95.7
2023-03-27T03:28:16.744Z,95.7
2023-03-27T03:29:17.275Z,95.6
2023-03-27T03:30:17.933Z,95.6
2023-03-27T03:31:17.608Z,95.7
2023-03-27T03:32:17.186Z,95.8
2023-03-27T03:33:16.757Z,95.8
2023-03-27T03:34:17.340Z,95.8
2023-03-27T03:35:16.941Z,95.9
2023-03-27T03:36:17.486Z,96.0
2023-03-27T03:37:17.058Z,96.0
2023-03-27T03:38:16.599Z,96.0
2023-03-27T03:39:17.141Z,96.0
2023-03-27T03:40:16.727Z,96.1
2023-03-27T03:41:17.289Z,96.1
2023-03-27T03:42:23.374Z,96.1
2023-03-27T03:43:16.908Z,96.2
2023-03-27T03:44:17.463Z,96.2
2023-03-27T03:45:17.028Z,96.3
2023-03-27T03:46:16.668Z,96.2
2023-03-27T03:47:17.268Z,96.1
2023-03-27T03:48:16.876Z,96.1
2023-03-27T03:49:17.454Z,96.1
2023-03-27T03:50:17.015Z,96.2
2023-03-27T03:51:16.581Z,96.1
2023-03-27T03:52:17.354Z,96.1
2023-03-27T03:53:16.912Z,96.1
2023-03-27T03:54:17.472Z,96.2
2023-03-27T03:55:17.038Z,96.2
2023-03-27T03:56:16.599Z,96.2
2023-03-27T03:57:17.565Z,96.3
2023-03-27T03:58:16.531Z,96.2
2023-03-27T03:59:17.111Z,96.2
2023-03-27T04:00:16.684Z,96.1
2023-03-27T04:01:17.212Z,96.1
2023-03-27T04:02:17.125Z,96.1
2023-03-27T04:03:16.989Z,96.2
2023-03-27T04:04:16.544Z,96.2
2023-03-27T04:05:17.121Z,96.2
2023-03-27T04:06:21.159Z,96.2
2023-03-27T04:07:17.040Z,96.3
2023-03-27T04:08:16.601Z,96.3
2023-03-27T04:09:17.160Z,96.3
2023-03-27T04:10:16.701Z,96.4
2023-03-27T04:11:17.238Z,96.4
2023-03-27T04:12:17.130Z,96.4
2023-03-27T04:13:16.677Z,96.5
2023-03-27T04:14:17.269Z,96.5
2023-03-27T04:15:16.828Z,96.4
2023-03-27T04:16:17.448Z,96.4
2023-03-27T04:17:17.033Z,96.4
2023-03-27T04:18:16.814Z,96.4
2023-03-27T04:19:17.389Z,96.4
2023-03-27T04:20:16.977Z,96.4
2023-03-27T04:21:16.531Z,96.4
2023-03-27T04:22:17.485Z,96.5
2023-03-27T04:23:17.040Z,96.4
2023-03-27T04:24:16.605Z,96.3
2023-03-27T04:25:17.193Z,96.3
2023-03-27T04:26:16.814Z,96.2
2023-03-27T04:27:17.389Z,96.2
2023-03-27T04:28:16.989Z,96.2
2023-03-27T04:29:16.553Z,96.3
2023-03-27T04:30:17.114Z,96.3
2023-03-27T04:31:16.754Z,96.3
2023-03-27T04:32:17.083Z,96.3
2023-03-27T04:33:16.637Z,96.3
2023-03-27T04:34:17.198Z,96.3
2023-03-27T04:35:16.765Z,96.4
2023-03-27T04:36:17.471Z,96.4
2023-03-27T04:37:24.110Z,96.3
2023-03-27T04:38:16.712Z,96.2
2023-03-27T04:39:17.305Z,96.2
2023-03-27T04:40:16.899Z,96.3
2023-03-27T04:41:17.525Z,96.2
2023-03-27T04:42:17.041Z,96.2
2023-03-27T04:43:16.630Z,96.2
2023-03-27T04:44:17.221Z,96.2
2023-03-27T04:45:16.890Z,96.2
2023-03-27T04:46:17.600Z,96.0
2023-03-27T04:47:17.221Z,96.0
2023-03-27T04:48:16.748Z,96.0
2023-03-27T04:49:17.304Z,96.0
2023-03-27T04:50:16.905Z,96.0
2023-03-27T04:51:17.460Z,96.1
2023-03-27T04:52:16.990Z,96.0
2023-03-27T04:53:16.546Z,96.0
2023-03-27T04:54:17.129Z,95.9
2023-03-27T04:55:16.684Z,95.9
2023-03-27T04:56:17.236Z,95.8
2023-03-27T04:57:17.022Z,95.8
2023-03-27T04:58:16.616Z,95.8
2023-03-27T04:59:17.206Z,95.8
2023-03-27T05:00:16.772Z,95.8
2023-03-27T05:01:17.501Z,95.8
2023-03-27T05:02:17.072Z,95.8
2023-03-27T05:03:16.717Z,95.7
2023-03-27T05:04:17.301Z,95.6
2023-03-27T05:05:16.892Z,95.6
2023-03-27T05:06:17.443Z,95.5
2023-03-27T05:07:17.032Z,95.4
2023-03-27T05:08:16.643Z,95.4
2023-03-27T05:09:17.205Z,95.4
2023-03-27T05:10:16.879Z,95.5
2023-03-27T05:11:17.449Z,95.3
2023-03-27T05:12:17.368Z,95.3
2023-03-27T05:13:16.952Z,95.3
2023-03-27T05:14:17.589Z,95.3
2023-03-27T05:15:17.132Z,95.3
2023-03-27T05:16:16.785Z,95.2
2023-03-27T05:17:17.353Z,95.3
2023-03-27T05:18:16.944Z,95.1
2023-03-27T05:19:17.508Z,95.2
2023-03-27T05:20:17.100Z,95.2
2023-03-27T05:21:16.641Z,95.3
2023-03-27T05:22:16.587Z,95.3
2023-03-27T05:23:17.175Z,95.3
2023-03-27T05:24:16.765Z,95.3
2023-03-27T05:25:17.351Z,95.3
2023-03-27T05:26:16.901Z,94.9
2023-03-27T05:27:17.444Z,95.0
2023-03-27T05:28:17.007Z,95.0
2023-03-27T05:29:16.578Z,95.0
2023-03-27T05:30:17.187Z,95.2
2023-03-27T05:31:16.814Z,95.2
2023-03-27T05:32:17.218Z,95.0
2023-03-27T05:33:16.801Z,94.9
2023-03-27T05:34:17.373Z,95.0
2023-03-27T05:35:16.980Z,94.9
2023-03-27T05:36:16.603Z,94.8
2023-03-27T05:37:17.174Z,94.9
2023-03-27T05:38:16.720Z,94.6
2023-03-27T05:39:17.346Z,94.8
2023-03-27T05:40:16.960Z,94.6
2023-03-27T05:41:16.681Z,94.6
2023-03-27T05:42:17.100Z,94.5
2023-03-27T05:43:16.706Z,94.6
2023-03-27T05:44:17.273Z,94.8
2023-03-27T05:45:16.868Z,94.7
2023-03-27T05:46:21.880Z,95.0
2023-03-27T05:47:17.504Z,95.3
2023-03-27T05:48:17.050Z,95.4
2023-03-27T05:49:16.719Z,95.4
2023-03-27T05:50:17.312Z,95.5
2023-03-27T05:51:16.874Z,95.5
2023-03-27T05:52:16.931Z,95.6
2023-03-27T05:53:17.504Z,95.7
2023-03-27T05:54:17.041Z,95.7
2023-03-27T05:55:16.697Z,95.8
2023-03-27T05:56:17.267Z,95.8
2023-03-27T05:57:16.856Z,95.9
2023-03-27T05:58:17.443Z,95.9
2023-03-27T05:59:16.983Z,95.9
2023-03-27T06:00:16.734Z,95.9
2023-03-27T06:01:17.353Z,95.8
2023-03-27T06:02:17.855Z,95.9
2023-03-27T06:03:17.070Z,95.9
2023-03-27T06:04:16.875Z,95.8
2023-03-27T06:05:17.455Z,95.8
2023-03-27T06:06:17.012Z,95.8
2023-03-27T06:07:16.570Z,95.8
2023-03-27T06:08:17.121Z,95.7
2023-03-27T06:09:16.672Z,95.6
2023-03-27T06:10:17.225Z,95.5
2023-03-27T06:11:16.794Z,95.4
2023-03-27T06:12:17.253Z,95.4
2023-03-27T06:13:16.970Z,95.3
2023-03-27T06:14:16.529Z,95.2
2023-03-27T06:15:17.120Z,94.9
2023-03-27T06:16:16.806Z,94.6
2023-03-27T06:17:17.431Z,94.6
2023-03-27T06:18:16.981Z,94.5
2023-03-27T06:19:16.504Z,94.4
2023-03-27T06:20:17.028Z,94.6
2023-03-27T06:21:16.575Z,94.4
2023-03-27T06:22:16.550Z,94.5
2023-03-27T06:23:17.155Z,94.5
2023-03-27T06:24:16.758Z,94.5
2023-03-27T06:25:17.359Z,94.3
2023-03-27T06:26:16.945Z,94.2
2023-03-27T06:27:17.526Z,94.2
2023-03-27T06:28:17.077Z,94.3
2023-03-27T06:29:16.739Z,94.2
2023-03-27T06:30:17.379Z,94.1
2023-03-27T06:31:17.112Z,93.8
2023-03-27T06:32:16.957Z,93.8
2023-03-27T06:33:17.536Z,93.9
2023-03-27T06:34:17.110Z,93.7
2023-03-27T06:35:16.696Z,93.5
2023-03-27T06:36:17.390Z,93.4
2023-03-27T06:37:17.021Z,93.7
2023-03-27T06:38:16.585Z,93.7
2023-03-27T06:39:17.169Z,93.5
2023-03-27T06:40:16.725Z,93.5
2023-03-27T06:41:17.304Z,93.5
2023-03-27T06:42:17.124Z,93.3
2023-03-27T06:43:16.668Z,93.0
2023-03-27T06:44:17.283Z,92.8
2023-03-27T06:45:16.919Z,92.9
2023-03-27T06:46:17.555Z,92.8
2023-03-27T06:47:17.193Z,92.8
2023-03-27T06:48:22.477Z,92.9
2023-03-27T06:49:17.280Z,93.0
2023-03-27T06:50:16.940Z,93.0
2023-03-27T06:51:17.516Z,92.4
2023-03-27T06:52:17.332Z,92.1
2023-03-27T06:53:28.513Z,92.2
2023-03-27T06:54:17.538Z,91.6
2023-03-27T06:55:17.172Z,91.5
2023-03-27T06:56:16.733Z,91.0
2023-03-27T06:57:17.397Z,91.3
2023-03-27T06:58:16.999Z,91.3
2023-03-27T06:59:16.583Z,91.3
2023-03-27T07:00:17.242Z,91.7
2023-03-27T07:01:16.823Z,91.3
2023-03-27T07:02:17.447Z,91.5
2023-03-27T07:03:17.063Z,91.7
2023-03-27T07:04:16.698Z,91.5
2023-03-27T07:05:17.406Z,91.6
2023-03-27T07:06:16.977Z,91.7
2023-03-27T07:07:16.559Z,91.8
2023-03-27T07:08:25.059Z,91.4
2023-03-27T07:09:16.930Z,91.0
2023-03-27T07:10:17.520Z,91.3
2023-03-27T07:11:18.240Z,91.5
2023-03-27T07:12:17.291Z,91.6
2023-03-27T07:13:16.852Z,91.6
2023-03-27T07:14:17.432Z,91.7
2023-03-27T07:15:17.205Z,91.7
2023-03-27T07:16:16.876Z,91.6
2023-03-27T07:17:17.461Z,91.4
2023-03-27T07:18:17.157Z,91.4
2023-03-27T07:19:16.763Z,91.2
2023-03-27T07:20:17.339Z,91.1
2023-03-27T07:21:16.904Z,91.2
2023-03-27T07:22:17.412Z,91.1
2023-03-27T07:23:16.955Z,91.3
2023-03-27T07:24:17.527Z,91.2
2023-03-27T07:25:17.144Z,91.0
2023-03-27T07:26:16.702Z,90.4
2023-03-27T07:27:17.423Z,90.0
2023-03-27T07:28:17.135Z,90.0
2023-03-27T07:29:16.704Z,90.1
2023-03-27T07:30:17.457Z,89.7
2023-03-27T07:31:42.267Z,89.6
2023-03-27T07:32:36.584Z,89.8
2023-03-27T07:33:16.735Z,89.2
2023-03-27T07:34:17.700Z,89.2
2023-03-27T07:35:17.638Z,88.9
2023-03-27T07:36:17.228Z,88.8
2023-03-27T07:37:16.777Z,88.6
2023-03-27T07:38:17.454Z,88.7
2023-03-27T07:39:17.053Z,88.1
2023-03-27T07:40:20.025Z,87.7
2023-03-27T07:41:17.441Z,86.8
2023-03-27T07:42:16.923Z,86.6
2023-03-27T07:43:17.561Z,87.1
2023-03-27T07:44:17.096Z,85.9
2023-03-27T07:45:16.676Z,85.7
2023-03-27T07:46:17.386Z,84.2
2023-03-27T07:47:16.958Z,84.9
2023-03-27T07:48:17.703Z,84.9
2023-03-27T07:49:17.365Z,83.0
2023-03-27T07:50:16.923Z,82.4
2023-03-27T07:51:17.592Z,80.6
2023-03-27T07:52:17.105Z,79.3
2023-03-27T07:53:32.524Z,76.8
2023-03-27T07:54:17.354Z,77.3
2023-03-27T07:55:17.413Z,77.5
2023-03-27T07:56:17.013Z,75.7
2023-03-27T07:57:16.739Z,75.0
2023-03-27T07:58:17.716Z,72.5
2023-03-27T07:59:17.570Z,74.0
2023-03-27T08:00:17.130Z,73.1
2023-03-27T08:01:16.737Z,72.9
2023-03-27T08:02:16.710Z,71.9
2023-03-27T08:03:17.653Z,71.1
2023-03-27T08:04:17.480Z,72.2
2023-03-27T08:05:17.139Z,69.3
2023-03-27T08:06:16.762Z,70.5
2023-03-27T08:07:17.323Z,71.6
2023-03-27T08:08:16.858Z,71.9
2023-03-27T08:09:17.474Z,71.5
2023-03-27T08:10:17.048Z,68.9
2023-03-27T08:11:30.891Z,67.5
2023-03-27T08:12:16.745Z,67.0
2023-03-27T08:13:17.297Z,66.1
2023-03-27T08:14:16.870Z,66.3
2023-03-27T08:15:17.509Z,67.2
2023-03-27T08:16:17.146Z,68.5
2023-03-27T08:17:20.710Z,68.9
2023-03-27T08:18:17.575Z,68.1
2023-03-27T08:19:17.191Z,66.4
2023-03-27T08:20:16.764Z,65.4
2023-03-27T08:21:17.364Z,63.7
2023-03-27T08:22:17.158Z,63.1
2023-03-27T08:23:16.683Z,61.8
2023-03-27T08:24:17.253Z,62.2
2023-03-27T08:25:16.899Z,61.8
2023-03-27T08:26:17.532Z,61.9
2023-03-27T08:27:17.101Z,62.3
2023-03-27T08:28:16.657Z,60.6
2023-03-27T08:29:17.194Z,57.2
2023-03-27T08:30:17.701Z,57.0
2023-03-27T08:31:17.446Z,57.8
2023-03-27T08:32:17.242Z,55.6
2023-03-27T08:33:16.789Z,56.8
2023-03-27T08:34:17.387Z,57.0
2023-03-27T08:35:17.042Z,56.2
2023-03-27T08:36:16.677Z,56.3
2023-03-27T08:37:17.260Z,55.3
2023-03-27T08:38:27.084Z,55.0
2023-03-27T08:39:16.851Z,53.0
2023-03-27T08:40:17.397Z,53.2
2023-03-27T08:41:17.270Z,54.0
2023-03-27T08:42:19.557Z,53.4
2023-03-27T08:43:17.095Z,51.4
2023-03-27T08:44:16.631Z,51.4
2023-03-27T08:45:17.192Z,51.5
2023-03-27T08:46:16.791Z,52.1
2023-03-27T08:47:17.370Z,52.2
2023-03-27T08:48:16.926Z,51.9
2023-03-27T08:49:17.642Z,51.8
2023-03-27T08:50:17.333Z,51.6
2023-03-27T08:51:16.893Z,51.7
2023-03-27T08:52:17.511Z,50.9
2023-03-27T08:53:17.059Z,52.0
2023-03-27T08:54:16.643Z,52.7
2023-03-27T08:55:17.219Z,52.0
2023-03-27T08:56:16.747Z,50.8
2023-03-27T08:57:17.404Z,51.3
2023-03-27T08:58:17.007Z,50.0
2023-03-27T08:59:17.825Z,50.4
2023-03-27T09:00:17.394Z,49.4
2023-03-27T09:01:17.021Z,49.9
2023-03-27T09:03:17.410Z,50.8
2023-03-27T09:04:17.051Z,51.6
2023-03-27T09:05:16.646Z,53.3
2023-03-27T09:06:17.201Z,54.2
2023-03-27T09:07:16.761Z,55.0
2023-03-27T09:08:17.336Z,56.5
2023-03-27T09:09:16.921Z,57.2
2023-03-27T09:10:16.655Z,57.4
2023-03-27T09:11:18.501Z,57.5
2023-03-27T09:12:17.395Z,57.6
2023-03-27T09:13:17.080Z,58.2
2023-03-27T09:14:16.704Z,58.6
2023-03-27T09:15:17.268Z,57.4
2023-03-27T09:16:16.926Z,55.9
2023-03-27T09:17:17.509Z,55.8
2023-03-27T09:18:17.076Z,55.8
2023-03-27T09:19:16.620Z,54.5
2023-03-27T09:20:17.195Z,55.1
2023-03-27T09:21:16.753Z,53.7
2023-03-27T09:22:17.428Z,53.1
2023-03-27T09:23:20.998Z,53.4
2023-03-27T09:24:16.647Z,52.6
2023-03-27T09:25:17.216Z,51.6
2023-03-27T09:26:16.809Z,52.1
2023-03-27T09:27:17.323Z,52.1
2023-03-27T09:28:16.894Z,52.8
2023-03-27T09:29:20.820Z,54.2
2023-03-27T09:30:17.556Z,54.2
2023-03-27T09:31:17.249Z,56.2
2023-03-27T09:32:17.386Z,56.4
2023-03-27T09:33:17.121Z,56.4
2023-03-27T09:34:16.664Z,54.7
2023-03-27T09:35:17.260Z,53.6
2023-03-27T09:36:16.872Z,53.6
2023-03-27T09:37:18.137Z,53.4
2023-03-27T09:38:16.793Z,52.8
2023-03-27T09:39:17.391Z,52.1
2023-03-27T09:40:17.027Z,52.5
2023-03-27T09:41:16.628Z,52.6
2023-03-27T09:42:17.508Z,51.7
2023-03-27T09:43:17.094Z,50.7
2023-03-27T09:44:16.669Z,50.5
2023-03-27T09:45:17.230Z,49.6
2023-03-27T09:46:16.875Z,50.1
2023-03-27T09:47:17.444Z,51.8
2023-03-27T09:48:16.977Z,53.3
2023-03-27T09:49:16.556Z,53.1
2023-03-27T09:50:17.128Z,54.2
2023-03-27T09:51:16.731Z,55.9
2023-03-27T09:52:16.593Z,56.5
2023-03-27T09:53:17.148Z,56.0
2023-03-27T09:54:16.674Z,56.9
2023-03-27T09:55:17.249Z,55.5
2023-03-27T09:56:16.824Z,54.8
2023-03-27T09:57:17.596Z,53.6
2023-03-27T09:58:17.234Z,51.7
2023-03-27T09:59:16.785Z,52.4
2023-03-27T10:00:17.345Z,52.5
2023-03-27T10:01:17.164Z,52.9
2023-03-27T10:02:17.333Z,51.5
2023-03-27T10:03:17.351Z,52.3
2023-03-27T10:04:17.018Z,51.5
2023-03-27T10:05:16.692Z,51.0
2023-03-27T10:06:17.259Z,52.4
2023-03-27T10:07:16.858Z,54.2
2023-03-27T10:08:17.410Z,53.1
2023-03-27T10:09:16.961Z,53.2
2023-03-27T10:10:17.539Z,53.7
2023-03-27T10:11:17.100Z,54.7
2023-03-27T10:12:17.116Z,54.4
2023-03-27T10:13:16.723Z,54.9
2023-03-27T10:14:17.281Z,55.2
2023-03-27T10:15:16.884Z,56.4
2023-03-27T10:16:17.509Z,56.2
2023-03-27T10:17:17.100Z,56.4
2023-03-27T10:18:16.657Z,57.4
2023-03-27T10:19:17.241Z,56.5
2023-03-27T10:20:16.800Z,57.3
2023-03-27T10:21:17.369Z,55.6
2023-03-27T10:22:17.177Z,55.5
2023-03-27T10:23:16.804Z,55.9
2023-03-27T10:24:17.443Z,57.2
2023-03-27T10:25:17.035Z,57.6
2023-03-27T10:26:16.593Z,57.9
2023-03-27T10:27:17.168Z,58.1
2023-03-27T10:28:16.708Z,58.0
2023-03-27T10:29:17.230Z,57.9
2023-03-27T10:30:16.789Z,57.9
2023-03-27T10:31:17.361Z,58.5
2023-03-27T10:32:17.429Z,58.7
2023-03-27T10:33:17.127Z,58.8
2023-03-27T10:34:16.714Z,59.0
2023-03-27T10:35:17.462Z,58.5
2023-03-27T10:36:17.053Z,57.9
2023-03-27T10:37:16.619Z,57.8
2023-03-27T10:38:17.190Z,57.8
2023-03-27T10:39:16.786Z,58.2
2023-03-27T10:40:17.320Z,57.9
2023-03-27T10:41:28.869Z,58.3
2023-03-27T10:42:16.569Z,58.5
2023-03-27T10:43:17.111Z,59.1
2023-03-27T10:44:16.684Z,60.0
2023-03-27T10:45:17.304Z,60.1
2023-03-27T10:46:17.144Z,58.6
2023-03-27T10:47:16.762Z,57.7
2023-03-27T10:48:17.325Z,57.6
2023-03-27T10:49:17.825Z,57.3
2023-03-27T10:50:17.382Z,56.7
2023-03-27T10:51:16.919Z,56.9
2023-03-27T10:52:16.837Z,56.7
2023-03-27T10:53:17.570Z,57.3
2023-03-27T10:54:17.321Z,56.5
2023-03-27T10:55:16.955Z,55.2
2023-03-27T10:56:17.531Z,55.1
2023-03-27T10:57:17.192Z,56.1
2023-03-27T10:58:16.808Z,55.8
2023-03-27T10:59:23.368Z,56.7
2023-03-27T11:00:18.806Z,56.9
2023-03-27T11:01:16.716Z,57.2
2023-03-27T11:02:17.330Z,57.3
2023-03-27T11:03:16.970Z,57.6
2023-03-27T11:04:16.591Z,58.2
2023-03-27T11:05:17.165Z,58.9
2023-03-27T11:06:16.744Z,59.0
2023-03-27T11:07:17.275Z,59.9
2023-03-27T11:08:16.876Z,59.8
2023-03-27T11:09:17.432Z,58.8
2023-03-27T11:10:17.008Z,58.7
2023-03-27T11:11:16.551Z,57.8
2023-03-27T11:12:17.326Z,57.8
2023-03-27T11:13:16.865Z,58.6
2023-03-27T11:14:17.544Z,57.1
2023-03-27T11:15:17.134Z,57.1
2023-03-27T11:16:16.743Z,57.2
2023-03-27T11:17:17.333Z,56.2
2023-03-27T11:18:16.902Z,55.9
2023-03-27T11:19:17.471Z,57.5
2023-03-27T11:20:17.020Z,57.3
2023-03-27T11:21:16.595Z,57.4
2023-03-27T11:22:17.061Z,57.7
2023-03-27T11:23:16.624Z,58.8
2023-03-27T11:24:17.175Z,57.7
2023-03-27T11:25:16.700Z,58.5
2023-03-27T11:26:17.273Z,56.6
2023-03-27T11:27:16.822Z,58.5
2023-03-27T11:28:17.371Z,58.5
2023-03-27T11:29:16.953Z,58.2
2023-03-27T11:30:17.551Z,57.4
2023-03-27T11:31:17.209Z,58.2
2023-03-27T11:32:17.226Z,58.3
2023-03-27T11:33:16.870Z,58.1
2023-03-27T11:34:29.695Z,57.5
2023-03-27T11:35:17.318Z,58.2
2023-03-27T11:36:16.866Z,55.8
2023-03-27T11:37:17.455Z,54.2
2023-03-27T11:38:16.999Z,55.6
2023-03-27T11:39:16.552Z,55.2
2023-03-27T11:40:17.173Z,55.6
2023-03-27T11:41:17.526Z,55.0
2023-03-27T11:42:16.583Z,53.2
2023-03-27T11:43:17.132Z,53.3
2023-03-27T11:44:16.666Z,53.4
2023-03-27T11:45:17.232Z,54.5
2023-03-27T11:46:16.865Z,54.6
2023-03-27T11:47:17.426Z,52.4
2023-03-27T11:48:17.077Z,52.4
2023-03-27T11:49:16.686Z,52.7
2023-03-27T11:50:17.270Z,55.0
2023-03-27T11:51:16.831Z,56.8
2023-03-27T11:52:17.165Z,58.8
2023-03-27T11:53:16.711Z,59.9
2023-03-27T11:54:17.273Z,60.1
2023-03-27T11:55:16.832Z,60.4
2023-03-27T11:56:17.399Z,64.1
2023-03-27T11:57:17.069Z,66.1
2023-03-27T11:58:16.633Z,66.9
2023-03-27T11:59:17.231Z,68.2
2023-03-27T12:00:16.854Z,68.7
2023-03-27T12:01:18.182Z,69.3
2023-03-27T12:02:17.302Z,69.3
2023-03-27T12:03:17.093Z,69.4
2023-03-27T12:04:16.949Z,69.1
2023-03-27T12:05:16.582Z,69.4
2023-03-27T12:06:17.151Z,69.4
2023-03-27T12:07:34.390Z,69.4
2023-03-27T12:08:16.897Z,69.0
2023-03-27T12:09:17.520Z,68.9
2023-03-27T12:10:17.106Z,69.0
2023-03-27T12:11:16.677Z,68.9
2023-03-27T12:12:16.770Z,68.7
2023-03-27T12:13:17.361Z,67.8
2023-03-27T12:14:19.300Z,67.5
2023-03-27T12:15:16.537Z,67.5
2023-03-27T12:16:17.147Z,67.4
2023-03-27T12:17:16.724Z,66.3
2023-03-27T12:18:17.257Z,66.6
2023-03-27T12:19:31.154Z,67.2
2023-03-27T12:20:16.703Z,66.9
2023-03-27T12:21:17.277Z,66.9
2023-03-27T12:22:24.670Z,66.0
2023-03-27T12:23:17.335Z,65.9
2023-03-27T12:24:16.910Z,66.1
2023-03-27T12:25:17.511Z,65.6
2023-03-27T12:26:17.089Z,65.6
2023-03-27T12:27:16.651Z,66.0
2023-03-27T12:28:23.642Z,65.6
2023-03-27T12:29:24.527Z,66.1
2023-03-27T12:30:17.190Z,66.1
2023-03-27T12:31:16.802Z,66.6
2023-03-27T12:32:16.599Z,66.8
2023-03-27T12:33:17.260Z,67.1
2023-03-27T12:34:16.836Z,67.0
2023-03-27T12:35:22.478Z,66.9
2023-03-27T12:36:17.083Z,66.6
2023-03-27T12:37:16.633Z,66.0
2023-03-27T12:38:17.233Z,66.9
2023-03-27T12:39:16.808Z,67.0
2023-03-27T12:40:17.360Z,66.6
2023-03-27T12:41:16.923Z,67.4
2023-03-27T12:42:16.985Z,67.2
2023-03-27T12:43:16.529Z,68.1
2023-03-27T12:44:17.074Z,68.6
2023-03-27T12:45:16.819Z,73.2
2023-03-27T12:46:17.417Z,75.8
2023-03-27T12:47:16.956Z,78.9
2023-03-27T12:48:17.530Z,83.5
2023-03-27T12:49:17.101Z,85.8
2023-03-27T12:50:16.710Z,84.9
2023-03-27T12:51:17.266Z,83.9
2023-03-27T12:52:16.637Z,84.6
2023-03-27T12:53:17.190Z,86.4
2023-03-27T12:54:16.732Z,86.6
2023-03-27T12:55:17.272Z,85.9
2023-03-27T12:56:16.801Z,85.3
2023-03-27T12:57:17.666Z,85.8
2023-03-27T12:58:17.458Z,85.0
2023-03-27T12:59:17.108Z,84.8
2023-03-27T13:00:16.665Z,84.9
2023-03-27T13:01:17.270Z,84.6
2023-03-27T13:02:17.184Z,84.9
2023-03-27T13:03:16.990Z,85.4
2023-03-27T13:04:16.672Z,86.0
2023-03-27T13:05:27.966Z,85.7
2023-03-27T13:06:16.692Z,87.7
2023-03-27T13:07:17.250Z,88.2
2023-03-27T13:08:16.778Z,89.5
2023-03-27T13:09:17.384Z,89.9
2023-03-27T13:10:16.982Z,89.9
2023-03-27T13:11:16.552Z,90.4
2023-03-27T13:12:16.643Z,90.3
2023-03-27T13:13:17.274Z,90.7
2023-03-27T13:14:16.888Z,90.6
2023-03-27T13:15:17.500Z,90.0
2023-03-27T13:16:17.158Z,89.4
2023-03-27T13:17:16.749Z,89.9
2023-03-27T13:18:17.301Z,89.9
2023-03-27T13:19:16.908Z,88.9